createdAt,value
2018-06-29T00:00:32.616Z,98585.59
2018-06-29T00:03:01.113Z,98583.28
2018-06-29T00:05:29.273Z,98580.93
2018-06-29T00:07:57.548Z,98580.09
2018-06-29T00:10:26.297Z,98588.95
2018-06-29T00:12:54.974Z,98584.00
2018-06-29T00:15:23.605Z,98586.72
2018-06-29T00:17:51.988Z,98589.78
2018-06-29T00:20:20.251Z,98581.03
2018-06-29T00:22:48.629Z,98586.62
2018-06-29T00:25:16.775Z,98585.30
2018-06-29T00:27:44.868Z,98581.16
2018-06-29T00:30:13.451Z,98586.42
2018-06-29T00:32:41.533Z,98579.71
2018-06-29T00:35:09.785Z,98576.94
2018-06-29T00:37:38.083Z,98574.93
2018-06-29T00:40:06.458Z,98577.16
2018-06-29T00:42:34.729Z,98578.91
2018-06-29T00:45:02.898Z,98580.56
2018-06-29T00:47:31.282Z,98577.97
2018-06-29T00:49:59.449Z,98578.70
2018-06-29T00:52:27.635Z,98578.82
2018-06-29T00:54:56.005Z,98581.14
2018-06-29T00:57:24.397Z,98579.44
2018-06-29T00:59:52.567Z,98573.08
2018-06-29T01:02:20.821Z,98569.28
2018-06-29T01:04:48.998Z,98570.48
2018-06-29T01:07:17.495Z,98573.37
2018-06-29T01:09:45.721Z,98570.98
2018-06-29T01:12:13.840Z,98573.80
2018-06-29T01:14:42.089Z,98571.47
2018-06-29T01:17:10.374Z,98569.94
2018-06-29T01:19:38.558Z,98566.64
2018-06-29T01:22:06.938Z,98570.30
2018-06-29T01:24:35.201Z,98561.90
2018-06-29T01:27:03.681Z,98560.21
2018-06-29T01:29:31.971Z,98562.31
2018-06-29T01:32:00.237Z,98561.30
2018-06-29T01:34:28.812Z,98557.05
2018-06-29T01:36:57.151Z,98557.62
2018-06-29T01:39:25.280Z,98556.20
2018-06-29T01:41:53.532Z,98554.24
2018-06-29T01:44:21.823Z,98546.88
2018-06-29T01:46:50.067Z,98548.47
2018-06-29T01:49:18.362Z,98550.00
2018-06-29T01:51:46.242Z,98551.34
2018-06-29T01:54:14.723Z,98552.40
2018-06-29T01:56:42.981Z,98553.37
2018-06-29T01:59:11.277Z,98548.62
2018-06-29T02:01:39.543Z,98551.55
2018-06-29T02:04:07.817Z,98541.77
2018-06-29T02:06:36.100Z,98545.98
2018-06-29T02:09:06.270Z,98542.84
2018-06-29T02:11:34.585Z,98538.07
2018-06-29T02:14:02.976Z,98541.09
2018-06-29T02:16:31.241Z,98538.82
2018-06-29T02:18:59.408Z,98542.19
2018-06-29T02:21:27.690Z,98541.27
2018-06-29T02:23:55.955Z,98544.41
2018-06-29T02:26:24.164Z,98541.34
2018-06-29T02:28:52.396Z,98539.53
2018-06-29T02:31:20.383Z,98543.52
2018-06-29T02:33:48.645Z,98537.80
2018-06-29T02:36:16.831Z,98540.63
2018-06-29T02:38:45.098Z,98544.87
2018-06-29T02:41:13.279Z,98542.37
2018-06-29T02:43:41.560Z,98538.87
2018-06-29T02:46:09.838Z,98542.03
2018-06-29T02:48:38.216Z,98546.83
2018-06-29T02:51:06.392Z,98548.36
2018-06-29T02:53:34.785Z,98546.93
2018-06-29T02:56:02.931Z,98553.88
2018-06-29T02:58:31.197Z,98554.39
2018-06-29T03:00:59.500Z,98556.06
2018-06-29T03:03:27.859Z,98556.80
2018-06-29T03:05:56.140Z,98553.61
2018-06-29T03:08:24.402Z,98551.28
2018-06-29T03:10:52.288Z,98553.61
2018-06-29T03:13:20.659Z,98557.16
2018-06-29T03:15:48.947Z,98553.53
2018-06-29T03:18:17.297Z,98553.63
2018-06-29T03:20:45.585Z,98559.34
2018-06-29T03:23:13.874Z,98553.06
2018-06-29T03:25:42.226Z,98548.84
2018-06-29T03:28:10.510Z,98557.53
2018-06-29T03:30:38.718Z,98549.70
2018-06-29T03:33:07.241Z,98551.36
2018-06-29T03:35:35.344Z,98552.94
2018-06-29T03:38:03.610Z,98548.58
2018-06-29T03:40:32.073Z,98544.00
2018-06-29T03:43:00.353Z,98538.53
2018-06-29T03:45:28.517Z,98541.83
2018-06-29T03:47:56.914Z,98537.20
2018-06-29T03:50:25.091Z,98540.30
2018-06-29T03:52:53.543Z,98538.45
2018-06-29T03:55:21.733Z,98540.06
2018-06-29T04:21:23.768Z,98557.25
2018-06-29T04:23:58.198Z,98553.98
2018-06-29T04:26:32.383Z,98556.97
2018-06-29T04:29:07.090Z,98558.02
2018-06-29T04:31:41.610Z,98560.91
2018-06-29T04:34:16.017Z,98562.92
2018-06-29T04:36:49.998Z,98557.48
2018-06-29T04:39:24.055Z,98556.44
2018-06-29T04:41:58.037Z,98556.53
2018-06-29T04:44:32.013Z,98553.34
2018-06-29T04:47:06.449Z,98557.77
2018-06-29T04:49:40.697Z,98557.17
2018-06-29T04:52:14.744Z,98553.83
2018-06-29T04:54:49.140Z,98562.60
2018-06-29T04:57:23.377Z,98562.36
2018-06-29T04:59:57.387Z,98560.78
2018-06-29T05:02:31.562Z,98551.88
2018-06-29T05:05:05.586Z,98548.64
2018-06-29T05:07:39.998Z,98552.24
2018-06-29T05:10:14.506Z,98553.44
2018-06-29T05:12:42.785Z,98556.66
2018-06-29T05:15:11.228Z,98555.93
2018-06-29T05:17:39.070Z,98556.03
2018-06-29T05:20:06.965Z,98550.03
2018-06-29T05:22:35.161Z,98553.34
2018-06-29T05:25:03.493Z,98551.66
2018-06-29T05:27:31.725Z,98555.91
2018-06-29T05:29:59.903Z,98553.73
2018-06-29T05:32:28.291Z,98550.44
2018-06-29T05:34:56.642Z,98544.69
2018-06-29T05:37:24.868Z,98544.79
2018-06-29T05:39:53.181Z,98542.88
2018-06-29T05:42:21.689Z,98541.17
2018-06-29T05:44:49.971Z,98541.34
2018-06-29T05:47:18.370Z,98543.29
2018-06-29T05:49:46.345Z,98547.16
2018-06-29T05:52:14.588Z,98545.44
2018-06-29T05:54:42.853Z,98546.89
2018-06-29T05:57:11.044Z,98550.88
2018-06-29T05:59:39.330Z,98548.59
2018-06-29T06:02:08.146Z,98548.67
2018-06-29T06:04:36.373Z,98551.84
2018-06-29T06:07:04.964Z,98549.86
2018-06-29T06:09:33.336Z,98545.08
2018-06-29T06:12:01.711Z,98548.59
2018-06-29T06:14:29.884Z,98545.67
2018-06-29T06:16:58.165Z,98545.91
2018-06-29T06:19:37.236Z,98545.41
2018-06-29T06:22:05.549Z,98554.94
2018-06-29T06:24:33.936Z,98560.34
2018-06-29T06:27:02.282Z,98557.16
2018-06-29T06:29:30.382Z,98553.61
2018-06-29T06:31:58.657Z,98563.73
2018-06-29T06:34:27.048Z,98562.22
2018-06-29T06:36:55.309Z,98566.15
2018-06-29T06:39:23.586Z,98564.81
2018-06-29T06:41:51.970Z,98565.70
2018-06-29T06:44:20.247Z,98570.36
2018-06-29T06:46:48.621Z,98569.19
2018-06-29T06:49:16.905Z,98567.25
2018-06-29T06:51:45.284Z,98558.41
2018-06-29T06:54:13.461Z,98558.45
2018-06-29T06:56:41.728Z,98560.10
2018-06-29T06:59:09.993Z,98558.45
2018-06-29T07:01:38.265Z,98558.16
2018-06-29T07:04:06.559Z,98553.44
2018-06-29T07:06:34.921Z,98549.12
2018-06-29T07:09:03.291Z,98545.16
2018-06-29T07:11:31.683Z,98542.76
2018-06-29T07:13:59.560Z,98539.12
2018-06-29T07:16:27.916Z,98537.66
2018-06-29T07:18:56.207Z,98530.06
2018-06-29T07:21:24.089Z,98538.09
2018-06-29T07:23:52.224Z,98527.63
2018-06-29T07:26:20.607Z,98534.49
2018-06-29T07:28:48.520Z,98527.81
2018-06-29T07:31:16.762Z,98520.13
2018-06-29T07:33:45.129Z,98515.29
2018-06-29T07:36:13.514Z,98514.93
2018-06-29T07:38:41.799Z,98516.29
2018-06-29T07:41:10.158Z,98514.29
2018-06-29T07:43:38.333Z,98514.45
2018-06-29T07:46:07.117Z,98515.28
2018-06-29T07:48:35.506Z,98507.23
2018-06-29T07:51:03.977Z,98504.91
2018-06-29T07:53:32.362Z,98502.58
2018-06-29T07:56:00.643Z,98506.25
2018-06-29T07:58:29.005Z,98509.78
2018-06-29T08:01:01.973Z,98513.27
2018-06-29T08:03:31.271Z,98518.47
2018-06-29T08:05:59.296Z,98518.45
2018-06-29T08:08:28.097Z,98518.11
2018-06-29T08:10:56.432Z,98515.63
2018-06-29T08:13:25.257Z,98514.97
2018-06-29T08:15:53.642Z,98512.95
2018-06-29T08:18:22.065Z,98513.10
2018-06-29T08:20:50.443Z,98515.11
2018-06-29T08:23:18.848Z,98516.80
2018-06-29T08:25:47.202Z,98520.93
2018-06-29T08:28:15.472Z,98521.56
2018-06-29T08:30:43.753Z,98519.92
2018-06-29T08:33:12.025Z,98518.45
2018-06-29T08:35:40.309Z,98516.63
2018-06-29T08:38:08.786Z,98514.23
2018-06-29T08:40:37.157Z,98516.45
2018-06-29T08:43:05.436Z,98521.63
2018-06-29T08:45:33.925Z,98521.13
2018-06-29T08:48:02.189Z,98520.59
2018-06-29T08:50:30.489Z,98514.78
2018-06-29T08:52:58.297Z,98519.28
2018-06-29T08:55:26.509Z,98518.12
2018-06-29T08:57:54.680Z,98521.11
2018-06-29T09:00:22.953Z,98519.80
2018-06-29T09:02:51.324Z,98514.77
2018-06-29T09:05:19.708Z,98517.78
2018-06-29T09:07:47.985Z,98514.60
2018-06-29T09:10:16.261Z,98515.57
2018-06-29T09:12:44.638Z,98512.38
2018-06-29T09:15:12.914Z,98509.38
2018-06-29T09:17:41.088Z,98514.92
2018-06-29T09:20:09.360Z,98504.58
2018-06-29T09:22:37.282Z,98509.95
2018-06-29T09:25:05.394Z,98510.27
2018-06-29T09:27:33.757Z,98511.44
2018-06-29T09:30:01.957Z,98518.77
2018-06-29T09:32:30.122Z,98511.58
2018-06-29T09:34:58.397Z,98514.25
2018-06-29T09:37:26.789Z,98525.93
2018-06-29T09:39:54.935Z,98527.28
2018-06-29T09:42:23.142Z,98525.25
2018-06-29T09:44:51.354Z,98524.09
2018-06-29T09:47:19.772Z,98527.92
2018-06-29T09:49:47.918Z,98518.89
2018-06-29T09:52:16.125Z,98521.23
2018-06-29T09:54:44.601Z,98519.36
2018-06-29T09:57:12.878Z,98518.14
2018-06-29T09:59:41.253Z,98509.60
2018-06-29T10:02:09.519Z,98510.76
2018-06-29T10:04:37.805Z,98510.86
2018-06-29T10:07:06.173Z,98504.32
2018-06-29T10:09:34.348Z,98502.61
2018-06-29T10:12:02.649Z,98510.80
2018-06-29T10:14:30.849Z,98508.15
2018-06-29T10:16:58.776Z,98511.85
2018-06-29T10:19:27.085Z,98522.74
2018-06-29T10:21:55.328Z,98523.42
2018-06-29T10:24:23.561Z,98523.59
2018-06-29T10:26:51.425Z,98517.70
2018-06-29T10:29:19.293Z,98512.13
2018-06-29T10:31:47.364Z,98509.92
2018-06-29T10:34:15.549Z,98514.67
2018-06-29T10:36:43.898Z,98507.81
2018-06-29T10:39:15.520Z,98513.83
2018-06-29T10:41:44.290Z,98502.54
2018-06-29T10:44:12.560Z,98508.62
2018-06-29T10:46:40.997Z,98502.77
2018-06-29T10:49:09.160Z,98507.84
2018-06-29T10:51:37.596Z,98501.46
2018-06-29T10:54:05.455Z,98501.58
2018-06-29T10:56:33.733Z,98499.64
2018-06-29T10:59:02.217Z,98491.59
2018-06-29T11:01:30.177Z,98490.59
2018-06-29T11:03:58.465Z,98491.29
2018-06-29T11:06:26.641Z,98492.28
2018-06-29T11:08:54.509Z,98482.30
2018-06-29T11:11:22.885Z,98481.41
2018-06-29T11:13:51.032Z,98491.87
2018-06-29T11:16:18.833Z,98475.30
2018-06-29T11:18:47.098Z,98473.70
2018-06-29T11:21:15.253Z,98475.94
2018-06-29T11:23:43.533Z,98467.94
2018-06-29T11:26:11.809Z,98462.58
2018-06-29T11:28:40.092Z,98462.17
2018-06-29T11:31:08.376Z,98463.97
2018-06-29T11:33:36.536Z,98458.11
2018-06-29T11:36:05.025Z,98454.95
2018-06-29T11:38:33.281Z,98444.72
2018-06-29T11:41:01.768Z,98438.88
2018-06-29T11:43:30.249Z,98441.19
2018-06-29T11:45:58.514Z,98449.18
2018-06-29T11:48:26.805Z,98438.05
2018-06-29T11:50:54.963Z,98448.27
2018-06-29T11:53:23.258Z,98432.58
2018-06-29T11:55:51.524Z,98439.56
2018-06-29T11:58:19.914Z,98432.02
2018-06-29T12:00:48.297Z,98430.67
2018-06-29T12:03:16.557Z,98433.80
2018-06-29T12:05:44.829Z,98442.38
2018-06-29T12:08:13.105Z,98440.92
2018-06-29T12:10:40.941Z,98437.87
2018-06-29T12:13:09.144Z,98437.66
2018-06-29T12:15:37.430Z,98430.63
2018-06-29T12:18:05.797Z,98428.73
2018-06-29T12:20:34.082Z,98432.33
2018-06-29T12:23:02.349Z,98430.10
2018-06-29T12:25:30.700Z,98427.90
2018-06-29T12:27:59.068Z,98429.87
2018-06-29T12:30:27.490Z,98430.37
2018-06-29T12:32:55.662Z,98425.44
2018-06-29T12:35:23.937Z,98426.71
2018-06-29T12:37:52.430Z,98425.57
2018-06-29T12:40:20.890Z,98428.54
2018-06-29T12:42:49.270Z,98433.20
2018-06-29T12:45:17.548Z,98430.88
2018-06-29T12:47:45.721Z,98425.38
2018-06-29T12:50:14.001Z,98427.33
2018-06-29T12:52:42.385Z,98425.78
2018-06-29T12:55:10.754Z,98421.31
2018-06-29T12:57:39.121Z,98417.88
2018-06-29T13:00:07.606Z,98416.37
2018-06-29T13:02:35.881Z,98415.67
2018-06-29T13:05:04.370Z,98414.41
2018-06-29T13:07:32.634Z,98411.59
2018-06-29T13:10:00.809Z,98407.09
2018-06-29T13:12:29.298Z,98409.84
2018-06-29T13:14:57.461Z,98404.03
2018-06-29T13:17:25.839Z,98406.74
2018-06-29T13:19:54.121Z,98406.10
2018-06-29T13:22:22.593Z,98408.28
2018-06-29T13:24:50.802Z,98415.16
2018-06-29T13:27:19.245Z,98414.52
2018-06-29T13:29:47.520Z,98407.75
2018-06-29T13:32:15.735Z,98403.90
2018-06-29T13:34:44.080Z,98415.35
2018-06-29T13:37:12.482Z,98421.50
2018-06-29T13:39:40.732Z,98414.59
2018-06-29T13:42:09.130Z,98412.08
2018-06-29T13:44:37.386Z,98414.73
2018-06-29T13:47:05.663Z,98412.92
2018-06-29T13:49:33.738Z,98419.17
2018-06-29T13:52:02.014Z,98412.11
2018-06-29T13:54:30.391Z,98412.59
2018-06-29T13:56:58.531Z,98408.97
2018-06-29T13:59:26.817Z,98404.79
2018-06-29T14:01:55.023Z,98403.22
2018-06-29T14:04:23.282Z,98397.58
2018-06-29T14:06:51.654Z,98397.72
2018-06-29T14:09:20.038Z,98388.75
2018-06-29T14:11:48.295Z,98394.59
2018-06-29T14:14:16.585Z,98393.84
2018-06-29T14:16:44.874Z,98383.81
2018-06-29T14:19:13.233Z,98387.38
2018-06-29T14:21:41.420Z,98382.92
2018-06-29T14:24:09.683Z,98380.05
2018-06-29T14:26:37.961Z,98371.28
2018-06-29T14:29:06.334Z,98371.92
2018-06-29T14:31:34.626Z,98371.55
2018-06-29T14:34:03.001Z,98374.03
2018-06-29T14:36:31.270Z,98357.88
2018-06-29T14:38:59.528Z,98368.36
2018-06-29T14:41:27.917Z,98368.77
2018-06-29T14:43:56.199Z,98369.30
2018-06-29T14:46:24.689Z,98369.41
2018-06-29T14:48:52.847Z,98372.08
2018-06-29T14:51:21.026Z,98371.58
2018-06-29T14:53:49.190Z,98378.45
2018-06-29T14:56:17.679Z,98377.50
2018-06-29T14:58:45.596Z,98366.77
2018-06-29T15:01:13.709Z,98366.22
2018-06-29T15:03:42.102Z,98370.52
2018-06-29T15:06:10.352Z,98368.59
2018-06-29T15:08:38.541Z,98369.66
2018-06-29T15:11:07.013Z,98368.22
2018-06-29T15:13:35.289Z,98375.06
2018-06-29T15:16:03.567Z,98380.20
2018-06-29T15:18:31.841Z,98375.58
2018-06-29T15:21:00.159Z,98375.61
2018-06-29T15:23:28.221Z,98373.56
2018-06-29T15:25:56.778Z,98375.31
2018-06-29T15:28:24.634Z,98374.11
2018-06-29T15:30:52.470Z,98378.43
2018-06-29T15:33:20.316Z,98378.02
2018-06-29T15:35:48.125Z,98378.72
2018-06-29T15:38:15.953Z,98375.17
2018-06-29T15:40:44.139Z,98377.66
2018-06-29T15:43:12.956Z,98378.22
2018-06-29T15:45:41.239Z,98378.81
2018-06-29T15:48:09.514Z,98386.19
2018-06-29T15:50:37.781Z,98383.64
2018-06-29T15:53:06.637Z,98386.20
2018-06-29T15:55:34.850Z,98386.49
2018-06-29T15:58:03.230Z,98390.91
2018-06-29T16:00:31.498Z,98396.83
2018-06-29T16:02:59.881Z,98404.70
2018-06-29T16:05:28.264Z,98405.16
2018-06-29T16:07:56.524Z,98415.73
2018-06-29T16:10:24.905Z,98415.00
2018-06-29T16:12:53.289Z,98415.97
2018-06-29T16:15:21.980Z,98421.59
2018-06-29T16:17:50.151Z,98420.12
2018-06-29T16:20:18.425Z,98432.63
2018-06-29T16:22:46.696Z,98431.06
2018-06-29T16:25:15.077Z,98434.83
2018-06-29T16:27:43.333Z,98439.73
2018-06-29T16:30:11.734Z,98437.48
2018-06-29T16:32:39.901Z,98444.68
2018-06-29T16:35:08.273Z,98435.16
2018-06-29T16:37:36.689Z,98439.16
2018-06-29T16:40:05.042Z,98442.80
2018-06-29T16:42:33.410Z,98435.12
2018-06-29T16:45:01.696Z,98443.14
2018-06-29T16:47:29.621Z,98443.37
2018-06-29T16:49:57.925Z,98439.63
2018-06-29T16:52:26.302Z,98447.28
2018-06-29T16:54:54.574Z,98440.16
2018-06-29T16:57:22.853Z,98438.52
2018-06-29T16:59:51.229Z,98433.35
2018-06-29T17:02:19.505Z,98441.19
2018-06-29T17:04:47.786Z,98446.72
2018-06-29T17:07:16.070Z,98444.58
2018-06-29T17:09:44.442Z,98450.95
2018-06-29T17:12:12.768Z,98452.45
2018-06-29T17:14:40.989Z,98458.69
2018-06-29T17:17:09.584Z,98458.05
2018-06-29T17:19:37.841Z,98462.06
2018-06-29T17:22:06.126Z,98466.42
2018-06-29T17:24:34.493Z,98469.25
2018-06-29T17:27:02.770Z,98471.92
2018-06-29T17:29:31.153Z,98470.44
2018-06-29T17:31:59.417Z,98464.95
2018-06-29T17:34:27.697Z,98464.98
2018-06-29T17:36:56.010Z,98450.11
2018-06-29T17:39:24.050Z,98450.47
2018-06-29T17:41:52.431Z,98451.95
2018-06-29T17:44:20.698Z,98447.95
2018-06-29T17:46:49.190Z,98452.28
2018-06-29T17:49:17.014Z,98455.98
2018-06-29T17:51:45.322Z,98459.84
2018-06-29T17:54:13.619Z,98461.50
2018-06-29T17:56:42.064Z,98466.52
2018-06-29T17:59:10.314Z,98465.50
2018-06-29T18:01:38.625Z,98458.84
2018-06-29T18:04:07.003Z,98457.66
2018-06-29T18:06:35.337Z,98454.17
2018-06-29T18:09:03.719Z,98444.48
2018-06-29T18:11:31.943Z,98441.45
2018-06-29T18:14:00.414Z,98443.46
2018-06-29T18:16:28.688Z,98442.30
2018-06-29T18:18:56.893Z,98440.98
2018-06-29T18:21:25.238Z,98438.14
2018-06-29T18:23:53.614Z,98437.81
2018-06-29T18:26:21.490Z,98437.83
2018-06-29T18:28:49.800Z,98434.48
2018-06-29T18:31:18.282Z,98437.64
2018-06-29T18:33:46.255Z,98451.34
2018-06-29T18:36:14.694Z,98447.86
2018-06-29T18:38:43.056Z,98452.18
2018-06-29T18:41:11.756Z,98453.84
2018-06-29T18:43:40.157Z,98460.20
2018-06-29T18:46:08.518Z,98454.17
2018-06-29T18:48:36.777Z,98460.19
2018-06-29T18:51:05.062Z,98460.53
2018-06-29T18:53:33.439Z,98460.86
2018-06-29T18:56:01.811Z,98455.19
2018-06-29T18:58:30.344Z,98453.85
2018-06-29T19:00:58.566Z,98448.02
2018-06-29T19:03:27.040Z,98442.86
2018-06-29T19:05:55.258Z,98446.17
2018-06-29T19:08:23.502Z,98448.17
2018-06-29T19:10:51.675Z,98447.52
2018-06-29T19:13:19.566Z,98443.67
2018-06-29T19:15:47.806Z,98448.85
2018-06-29T19:18:16.081Z,98442.84
2018-06-29T19:20:43.998Z,98442.83
2018-06-29T19:23:12.226Z,98444.34
2018-06-29T19:25:40.506Z,98448.51
2018-06-29T19:28:08.790Z,98437.34
2018-06-29T19:30:36.940Z,98439.34
2018-06-29T19:33:05.462Z,98446.34
2018-06-29T19:35:33.703Z,98442.48
2018-06-29T19:38:02.146Z,98445.33
2018-06-29T19:40:30.371Z,98444.52
2018-06-29T19:42:58.665Z,98444.31
2018-06-29T19:45:26.860Z,98443.36
2018-06-29T19:47:55.068Z,98441.32
2018-06-29T19:50:23.354Z,98437.50
2018-06-29T19:52:51.882Z,98441.67
2018-06-29T19:55:20.151Z,98441.80
2018-06-29T19:57:48.398Z,98443.33
2018-06-29T20:00:16.762Z,98438.78
2018-06-29T20:02:45.192Z,98440.62
2018-06-29T20:05:13.543Z,98443.11
2018-06-29T20:07:41.918Z,98437.11
2018-06-29T20:10:10.283Z,98446.13
2018-06-29T20:12:38.763Z,98445.45
2018-06-29T20:15:07.986Z,98450.91
2018-06-29T20:17:36.329Z,98457.94
2018-06-29T20:20:05.228Z,98457.09
2018-06-29T20:22:33.497Z,98459.44
2018-06-29T20:25:01.805Z,98459.76
2018-06-29T20:27:29.938Z,98466.22
2018-06-29T20:29:58.329Z,98464.08
2018-06-29T20:32:26.630Z,98466.25
2018-06-29T20:34:54.973Z,98460.70
2018-06-29T20:37:23.215Z,98465.27
2018-06-29T20:39:51.456Z,98458.62
2018-06-29T20:42:19.602Z,98459.09
2018-06-29T20:44:47.465Z,98460.25
2018-06-29T20:47:15.769Z,98466.08
2018-06-29T20:49:44.118Z,98466.56
2018-06-29T20:52:12.285Z,98462.21
2018-06-29T20:54:40.772Z,98466.17
2018-06-29T20:57:09.026Z,98468.34
2018-06-29T20:59:37.409Z,98471.51
2018-06-29T21:02:05.910Z,98464.70
2018-06-29T21:04:34.238Z,98458.70
2018-06-29T21:07:02.557Z,98457.76
2018-06-29T21:09:30.713Z,98452.59
2018-06-29T21:11:59.254Z,98449.58
2018-06-29T21:14:27.443Z,98455.05
2018-06-29T21:16:55.663Z,98446.21
2018-06-29T21:19:23.833Z,98455.20
2018-06-29T21:21:52.312Z,98451.86
2018-06-29T21:24:20.177Z,98455.38
2018-06-29T21:26:48.486Z,98456.18
2018-06-29T21:29:16.622Z,98452.00
2018-06-29T21:31:44.806Z,98462.53
2018-06-29T21:34:13.032Z,98460.70
2018-06-29T21:36:41.342Z,98455.19
2018-06-29T21:39:10.694Z,98457.02
2018-06-29T21:41:38.826Z,98456.70
2018-06-29T21:44:07.302Z,98458.70
2018-06-29T21:46:36.326Z,98456.84
2018-06-29T21:49:04.905Z,98458.66
2018-06-29T21:51:33.192Z,98456.66
2018-06-29T21:54:01.626Z,98455.11
2018-06-29T21:56:29.937Z,98451.64
2018-06-29T21:58:58.174Z,98453.33
2018-06-29T22:01:26.662Z,98457.59
2018-06-29T22:03:54.866Z,98460.11
2018-06-29T22:06:23.206Z,98457.76
2018-06-29T22:08:51.374Z,98458.92
2018-06-29T22:11:19.680Z,98461.72
2018-06-29T22:13:48.042Z,98452.20
2018-06-29T22:16:16.455Z,98462.91
2018-06-29T22:18:44.711Z,98459.22
2018-06-29T22:21:13.165Z,98468.91
2018-06-29T22:23:41.541Z,98464.13
2018-06-29T22:26:09.417Z,98457.47
2018-06-29T22:28:37.685Z,98458.80
2018-06-29T22:31:06.215Z,98458.92
2018-06-29T22:33:34.133Z,98464.75
2018-06-29T22:36:02.518Z,98460.93
2018-06-29T22:38:30.821Z,98467.88
2018-06-29T22:40:59.161Z,98465.00
2018-06-29T22:43:27.346Z,98458.91
2018-06-29T22:45:55.748Z,98460.73
2018-06-29T22:48:23.886Z,98460.91
2018-06-29T22:50:52.274Z,98463.35
2018-06-29T22:53:20.476Z,98470.45
2018-06-29T22:55:48.813Z,98468.08
2018-06-29T22:58:17.095Z,98474.25
2018-06-29T23:00:45.610Z,98476.00
2018-06-29T23:03:13.958Z,98477.91
2018-06-29T23:05:42.222Z,98478.27
2018-06-29T23:08:11.173Z,98481.46
2018-06-29T23:10:39.730Z,98479.61
2018-06-29T23:13:08.905Z,98474.36
2018-06-29T23:15:37.407Z,98468.23
2018-06-29T23:18:05.887Z,98470.92
2018-06-29T23:20:33.996Z,98467.53
2018-06-29T23:23:02.292Z,98466.75
2018-06-29T23:25:30.714Z,98461.23
2018-06-29T23:27:58.953Z,98458.09
2018-06-29T23:30:27.229Z,98456.14
2018-06-29T23:32:55.437Z,98450.55
2018-06-29T23:35:23.779Z,98451.63
2018-06-29T23:37:51.949Z,98444.56
2018-06-29T23:40:20.357Z,98443.02
2018-06-29T23:42:48.810Z,98441.33
2018-06-29T23:45:17.294Z,98436.56
2018-06-29T23:47:45.725Z,98428.22
2018-06-29T23:50:14.054Z,98430.73
2018-06-29T23:52:42.425Z,98427.91
2018-06-29T23:55:10.894Z,98426.94
2018-06-29T23:57:39.220Z,98418.58
